Flight Track Log - Related Links

Times and Time Zones

All times are in EDT time to prevent confusion due to time zone crossing. See the SKW6472 flight status page for this flight to view local times or setup timezone preferences in your user account.

Time Position Orientation Groundspeed Altitude Reporting Facility
EDT Latitude Longitude Course Direction KTS MPH feet Rate Location/Type
Sun 06:22:48 PM 35.0433 -106.5664 270° West 190 219 5,800  Level Albuquerque Center
Sun 06:23:29 PM 35.0633 -106.5389 48° Northeast 192 221 6,800 1,353 Climbing Albuquerque Center
Sun 06:24:30 PM 35.1117 -106.5872 321° Northwest 246 283 8,100 1,268 Climbing Albuquerque Center
Sun 06:25:00 PM 35.0334 -107.0294 270° West  Level FlightAware Approximate
Sun 06:25:32 PM 35.1753 -106.6689 314° West 267 307 9,400  Level Albuquerque Center
Sun 06:26:00 PM 35.0333 -107.1726 270° West  Level FlightAware Approximate
Sun 06:26:34 PM 35.1853 -106.7667 277° West 289 333 11,200  Level Albuquerque Center
Sun 06:27:00 PM 35.0167 -107.3139 270° West  Level FlightAware Approximate
Sun 06:27:35 PM 35.1767 -106.8686 264° West 304 350 12,800  Level Albuquerque Center
Sun 06:28:00 PM 35.0167 -107.4571 270° West  Level FlightAware Approximate
Sun 06:28:37 PM 35.1686 -106.9722 265° West 312 359 14,400  Level Albuquerque Center
Sun 06:29:39 PM 35.1575 -107.0994 264° West 317 365 16,100 1,902 Climbing Albuquerque Center
Sun 06:30:40 PM 35.1511 -107.2033 266° West 312 359 18,300 1,756 Climbing Albuquerque Center
Sun 06:31:42 PM 35.1447 -107.3044 266° West 302 348 19,700 1,258 Climbing Albuquerque Center
Sun 06:32:44 PM 35.1247 -107.4017 256° West 298 343 20,900 976 Climbing Albuquerque Center
Sun 06:33:45 PM 35.0933 -107.5025 249° West 312 359 21,700 537 Climbing Albuquerque Center
Sun 06:34:47 PM 35.0728 -107.6133 257° West 334 384 22,000 145 Climbing Albuquerque Center
Sun 06:35:49 PM 35.0753 -107.7353 271° West 355 409 22,000 585 Level Albuquerque Center
Sun 06:36:50 PM 35.0658 -107.8811 266° West 360 414 23,200 927 Climbing Albuquerque Center
Sun 06:37:52 PM 35.0650 -107.9975 270° West 358 412 23,900 780 Climbing Albuquerque Center
Sun 06:38:53 PM 35.0733 -108.1364 274° West 364 419 24,800 829 Climbing Albuquerque Center
Sun 06:39:55 PM 35.0672 -108.2553 266° West 364 419 25,600 677 Climbing Albuquerque Center
Sun 06:40:57 PM 35.0606 -108.3750 266° West 367 422 26,200 537 Climbing Albuquerque Center
Sun 06:41:58 PM 35.0550 -108.5181 267° West 373 429 26,700 439 Climbing Albuquerque Center
Sun 06:43:00 PM 35.0622 -108.6411 274° West 379 436 27,100 439 Climbing Albuquerque Center
Sun 06:44:01 PM 35.0967 -108.7828 287° West 387 445 27,600 488 Climbing Albuquerque Center
Sun 06:45:03 PM 35.1278 -108.9042 287° West 390 449 28,100 488 Climbing Albuquerque Center
Sun 06:46:04 PM 35.1572 -109.0250 287° West 388 447 28,600 390 Climbing Albuquerque Center
Sun 06:47:06 PM 35.1919 -109.1697 286° West 394 453 28,900 244 Climbing Albuquerque Center
Sun 06:48:07 PM 35.2022 -109.2958 276° West 391 450 29,100 344 Climbing Albuquerque Center
Sun 06:49:08 PM 35.1867 -109.4244 262° West 397 457 29,600 439 Climbing Albuquerque Center
Sun 06:50:10 PM 35.1775 -109.5758 266° West 397 457 30,000 195 Climbing Albuquerque Center
Sun 06:51:11 PM 35.1597 -109.7058 261° West 404 465 30,000  Level Albuquerque Center
Sun 06:52:13 PM 35.1386 -109.8608 261° West 412 474 30,000  Level Albuquerque Center
Sun 06:53:14 PM 35.1214 -109.9978 261° West 420 483 30,000  Level Albuquerque Center
Sun 06:54:16 PM 35.1019 -110.1314 260° West 418 481 30,000 244 Level Albuquerque Center
Sun 06:55:17 PM 35.0806 -110.2836 260° West 412 474 30,500 492 Climbing Albuquerque Center
Sun 06:56:18 PM 35.0622 -110.4128 260° West 407 468 31,000 341 Climbing Albuquerque Center
Sun 06:57:20 PM 35.0383 -110.5639 259° West 404 465 31,200 195 Climbing Albuquerque Center
Sun 06:58:21 PM 35.0186 -110.6944 260° West 409 471 31,400 195 Climbing Albuquerque Center
Sun 06:59:23 PM 34.9989 -110.8267 260° West 413 475 31,600 195 Climbing Albuquerque Center
Sun 07:00:24 PM 34.9789 -110.9631 260° West 412 474 31,800 197 Climbing Albuquerque Center
Sun 07:01:25 PM 34.9583 -111.1019 260° West 415 478 32,000 98 Climbing Albuquerque Center
Sun 07:02:27 PM 34.9469 -111.2453 265° West 421 484 32,000  Level Albuquerque Center
Sun 07:03:28 PM 34.9408 -111.4150 268° West 420 483 32,000  Level Albuquerque Center
Sun 07:04:30 PM 34.9336 -111.5544 266° West 417 480 32,000  Level Albuquerque Center
Sun 07:05:31 PM 34.9039 -111.6881 255° West 415 478 32,000  Level Albuquerque Center
Sun 07:06:33 PM 34.8678 -111.8192 251° West 411 473 32,000  Level Albuquerque Center
Sun 07:07:34 PM 34.8344 -111.9506 253° West 408 470 32,000  Level Albuquerque Center
Sun 07:08:35 PM 34.8133 -112.0869 259° West 412 474 32,000  Level Albuquerque Center
Sun 07:09:37 PM 34.7917 -112.2244 259° West 414 476 32,000  Level Albuquerque Center
Sun 07:10:38 PM 34.7697 -112.3608 259° West 412 474 32,000  Level Albuquerque Center
Sun 07:11:39 PM 34.7444 -112.5250 259° West 412 474 32,000  Level Albuquerque Center
Sun 07:12:41 PM 34.7217 -112.6611 259° West 412 474 32,000  Level Albuquerque Center
Sun 07:13:42 PM 34.7003 -112.7997 259° West 415 478 32,000  Level Albuquerque Center
Sun 07:14:43 PM 34.6578 -112.9264 248° West 415 478 32,000  Level Albuquerque Center
Sun 07:15:45 PM 34.5961 -113.0406 237° Southwest 407 468 32,000  Level Albuquerque Center
Sun 07:16:46 PM 34.5331 -113.1539 236° Southwest 406 467 32,000  Level Albuquerque Center
Sun 07:17:47 PM 34.4658 -113.2622 233° Southwest 406 467 32,000  Level Albuquerque Center
Sun 07:18:49 PM 34.3856 -113.3881 232° Southwest 408 470 32,000  Level Albuquerque Center
Sun 07:19:50 PM 34.3419 -113.5156 248° West 421 484 32,000  Level Albuquerque Center
Sun 07:20:51 PM 34.3003 -113.6536 250° West 410 472 32,000  Level Albuquerque Center
Sun 07:22:33 PM 34.2669 -113.8656 259° West 413 475 32,000  Level Los Angeles Center
Sun 07:23:35 PM 34.2542 -114.0025 264° West 412 474 32,000  Level Los Angeles Center
Sun 07:24:37 PM 34.2428 -114.1403 264° West 414 476 32,000  Level Los Angeles Center
Sun 07:25:52 PM 34.2256 -114.3358 264° West 421 484 32,000 -219 Level Los Angeles Center
Sun 07:26:54 PM 34.2131 -114.4806 264° West 435 501 31,500 -532 Descending Los Angeles Center
Sun 07:27:56 PM 34.2000 -114.6303 264° West 447 514 30,900 -435 Descending Los Angeles Center
Sun 07:28:58 PM 34.1861 -114.7808 264° West 452 520 30,600 -350 Descending Los Angeles Center
Sun 07:30:13 PM 34.1739 -114.9325 264° West 454 522 30,100 -263 Descending Los Angeles Center
Sun 07:31:15 PM 34.1542 -115.1419 264° West 450 518 30,000 -48 Descending Los Angeles Center
Sun 07:32:17 PM 34.1325 -115.2892 260° West 448 516 30,000  Level Los Angeles Center
Sun 07:33:19 PM 34.1108 -115.4347 260° West 445 512 30,000  Level Los Angeles Center
Sun 07:34:21 PM 34.0917 -115.5825 261° West 447 514 30,000  Level Los Angeles Center
Sun 07:35:23 PM 34.0772 -115.7303 263° West 447 514 30,000  Level Los Angeles Center
Sun 07:36:25 PM 34.0653 -115.8808 265° West 451 519 30,000 -48 Level Los Angeles Center
Sun 07:37:27 PM 34.0489 -116.0578 264° West 447 514 29,900 -919 Descending Los Angeles Center
Sun 07:38:29 PM 34.0361 -116.2108 264° West 458 527 28,100 -1,839 Descending Los Angeles Center
Sun 07:39:31 PM 34.0222 -116.3653 264° West 465 535 26,100 -1,872 Descending Los Angeles Center
Sun 07:40:34 PM 34.0092 -116.5122 264° West 446 513 24,200 -1,824 Descending Los Angeles Center
Sun 07:41:36 PM 33.9967 -116.6544 264° West 434 499 22,300 -1,839 Descending Los Angeles Center
Sun 07:42:38 PM 33.9844 -116.7933 264° West 423 487 20,400 -1,984 Descending Los Angeles Center
Sun 07:43:40 PM 33.9689 -116.9539 263° West 409 471 18,200 -1,417 Descending Los Angeles Center
Sun 07:45:02 PM 33.9500 -117.1333 263° West 385 443 17,000 -803 Descending Southern California TRACON
Sun 07:46:02 PM 33.9333 -117.2667 261° West 382 440 16,300 -1,091 Descending Southern California TRACON
Sun 07:47:03 PM 33.9333 -117.4000 270° West 387 445 14,800 -1,587 Descending Southern California TRACON
Sun 07:48:03 PM 33.9833 -117.5167 297° West 382 440 13,100 -1,450 Descending Southern California TRACON
Sun 07:49:03 PM 34.0167 -117.6167 292° West 315 362 11,900 -1,350 Descending Southern California TRACON
Sun 07:50:03 PM 34.0000 -117.7167 259° West 308 354 10,400 -1,500 Descending Southern California TRACON
Sun 07:51:03 PM 34.0000 -117.8167 270° West 302 348 8,900 -1,500 Descending Southern California TRACON
Sun 07:52:03 PM 33.9833 -117.9167 259° West 295 339 7,400 -1,400 Descending Southern California TRACON
Sun 07:53:03 PM 33.9667 -118.0167 259° West 280 322 6,100 -1,388 Descending Southern California TRACON
Sun 07:54:04 PM 33.9667 -118.1000 270° West 258 297 4,600 -1,339 Descending Southern California TRACON
Sun 07:55:04 PM 33.9667 -118.1833 270° West 229 264 3,400 -1,200 Descending Southern California TRACON

Login

Don't have an account? Register now (free) for customized features, flight alerts, and more!